createdAt,value
2018-08-09T00:01:46.276Z,22.00
2018-08-09T00:04:14.835Z,22.00
2018-08-09T00:06:43.328Z,21.90
2018-08-09T00:09:11.863Z,21.90
2018-08-09T00:11:40.622Z,21.90
2018-08-09T00:14:09.957Z,21.90
2018-08-09T00:16:38.580Z,21.80
2018-08-09T00:19:07.235Z,21.70
2018-08-09T00:21:35.874Z,21.70
2018-08-09T00:24:04.900Z,21.70
2018-08-09T00:26:33.527Z,21.70
2018-08-09T00:29:02.187Z,21.70
2018-08-09T00:31:30.880Z,21.70
2018-08-09T00:33:59.463Z,21.80
2018-08-09T00:36:28.103Z,21.80
2018-08-09T00:38:56.729Z,21.80
2018-08-09T00:41:25.391Z,21.80
2018-08-09T00:43:54.040Z,21.80
2018-08-09T00:46:22.719Z,21.80
2018-08-09T00:48:51.361Z,21.70
2018-08-09T00:51:19.978Z,21.70
2018-08-09T00:53:48.599Z,21.70
2018-08-09T00:56:17.183Z,21.60
2018-08-09T00:58:45.761Z,21.60
2018-08-09T01:01:14.379Z,21.50
2018-08-09T01:03:42.983Z,21.50
2018-08-09T01:06:11.604Z,21.50
2018-08-09T01:08:44.392Z,21.50
2018-08-09T01:11:12.984Z,21.40
2018-08-09T01:13:41.605Z,21.40
2018-08-09T01:16:10.149Z,21.40
2018-08-09T01:18:38.694Z,21.30
2018-08-09T01:21:07.274Z,21.30
2018-08-09T01:23:35.884Z,21.30
2018-08-09T01:26:04.447Z,21.30
2018-08-09T01:28:33.117Z,21.20
2018-08-09T01:31:01.719Z,21.20
2018-08-09T01:33:30.357Z,21.10
2018-08-09T01:35:58.912Z,21.10
2018-08-09T01:38:27.526Z,21.10
2018-08-09T01:40:56.133Z,21.10
2018-08-09T01:43:35.640Z,21.00
2018-08-09T01:46:04.203Z,21.00
2018-08-09T01:48:32.783Z,21.00
2018-08-09T01:51:01.254Z,21.00
2018-08-09T01:53:29.793Z,21.00
2018-08-09T01:55:58.319Z,21.00
2018-08-09T01:58:27.003Z,21.00
2018-08-09T02:00:55.625Z,21.00
2018-08-09T02:03:24.125Z,21.10
2018-08-09T02:05:52.647Z,21.10
2018-08-09T02:08:21.177Z,21.10
2018-08-09T02:10:49.691Z,21.10
2018-08-09T02:13:18.181Z,21.00
2018-08-09T02:15:46.695Z,21.00
2018-08-09T02:18:15.285Z,21.00
2018-08-09T02:20:43.825Z,20.90
2018-08-09T02:23:12.305Z,20.90
2018-08-09T02:25:40.803Z,20.90
2018-08-09T02:28:09.308Z,20.90
2018-08-09T02:30:38.008Z,20.90
2018-08-09T02:33:06.497Z,20.90
2018-08-09T02:35:35.006Z,20.90
2018-08-09T02:38:03.502Z,20.90
2018-08-09T02:40:32.064Z,20.90
2018-08-09T02:43:00.580Z,20.90
2018-08-09T02:45:29.161Z,20.90
2018-08-09T02:47:57.615Z,20.80
2018-08-09T02:50:26.135Z,20.80
2018-08-09T02:52:54.623Z,20.90
2018-08-09T02:55:23.148Z,20.90
2018-08-09T02:57:51.670Z,20.90
2018-08-09T03:00:20.223Z,20.90
2018-08-09T03:02:48.767Z,20.90
2018-08-09T03:05:17.248Z,20.90
2018-08-09T03:07:45.773Z,20.90
2018-08-09T03:10:14.274Z,20.90
2018-08-09T03:12:42.815Z,20.80
2018-08-09T03:15:11.336Z,20.90
2018-08-09T03:17:39.834Z,20.80
2018-08-09T03:20:08.350Z,20.80
2018-08-09T03:22:36.859Z,20.80
2018-08-09T03:25:05.395Z,20.70
2018-08-09T03:27:33.923Z,20.70
2018-08-09T03:30:02.440Z,20.70
2018-08-09T03:32:30.927Z,20.70
2018-08-09T03:34:59.395Z,20.60
2018-08-09T03:37:27.884Z,20.60
2018-08-09T03:39:56.340Z,20.60
2018-08-09T03:42:24.847Z,20.60
2018-08-09T03:44:53.298Z,20.60
2018-08-09T03:47:21.885Z,20.60
2018-08-09T03:49:50.394Z,20.60
2018-08-09T03:52:18.830Z,20.60
2018-08-09T03:54:47.331Z,20.60
2018-08-09T03:57:16.167Z,20.60
2018-08-09T03:59:44.686Z,20.50
2018-08-09T04:02:13.171Z,20.50
2018-08-09T04:04:41.669Z,20.50
2018-08-09T04:07:10.186Z,20.50
2018-08-09T04:09:38.702Z,20.50
2018-08-09T04:12:07.202Z,20.50
2018-08-09T04:14:35.763Z,20.50
2018-08-09T04:17:08.586Z,20.50
2018-08-09T04:19:37.078Z,20.50
2018-08-09T04:22:05.692Z,20.50
2018-08-09T04:24:34.233Z,20.50
2018-08-09T04:27:02.728Z,20.50
2018-08-09T04:29:31.278Z,20.50
2018-08-09T04:31:59.705Z,20.50
2018-08-09T04:34:28.212Z,20.50
2018-08-09T04:36:56.691Z,20.50
2018-08-09T04:39:25.170Z,20.60
2018-08-09T04:41:53.627Z,20.60
2018-08-09T04:44:22.103Z,20.60
2018-08-09T04:46:50.571Z,20.60
2018-08-09T04:49:19.125Z,20.60
2018-08-09T04:51:47.599Z,20.60
2018-08-09T04:54:16.071Z,20.70
2018-08-09T04:56:44.591Z,20.70
2018-08-09T04:59:13.060Z,20.70
2018-08-09T05:01:41.664Z,20.70
2018-08-09T05:04:10.274Z,20.70
2018-08-09T05:06:38.801Z,20.80
2018-08-09T05:09:08.936Z,20.80
2018-08-09T05:11:37.498Z,20.80
2018-08-09T05:14:05.999Z,20.90
2018-08-09T05:16:34.527Z,20.90
2018-08-09T05:19:03.019Z,20.90
2018-08-09T05:21:31.542Z,20.90
2018-08-09T05:24:00.009Z,21.00
2018-08-09T05:26:28.563Z,21.00
2018-08-09T05:28:57.020Z,21.10
2018-08-09T05:31:25.517Z,21.10
2018-08-09T05:33:53.990Z,21.20
2018-08-09T05:36:22.520Z,21.20
2018-08-09T05:38:50.996Z,21.20
2018-08-09T05:41:21.491Z,21.30
2018-08-09T05:43:49.954Z,21.30
2018-08-09T05:46:18.421Z,21.40
2018-08-09T05:48:46.915Z,21.50
2018-08-09T05:51:15.389Z,21.50
2018-08-09T05:53:43.955Z,21.60
2018-08-09T05:56:12.456Z,21.70
2018-08-09T05:58:40.991Z,21.70
2018-08-09T06:01:09.492Z,21.80
2018-08-09T06:03:38.009Z,21.90
2018-08-09T06:06:06.491Z,22.00
2018-08-09T06:08:34.979Z,22.00
2018-08-09T06:11:03.475Z,22.10
2018-08-09T06:13:32.037Z,22.20
2018-08-09T06:16:00.495Z,22.30
2018-08-09T06:18:29.012Z,22.30
2018-08-09T06:20:57.475Z,22.40
2018-08-09T06:23:25.999Z,22.50
2018-08-09T06:25:54.495Z,22.60
2018-08-09T06:28:23.079Z,22.70
2018-08-09T06:30:51.635Z,22.80
2018-08-09T06:33:20.176Z,22.90
2018-08-09T06:35:48.662Z,23.00
2018-08-09T06:38:17.116Z,23.10
2018-08-09T06:40:45.642Z,23.20
2018-08-09T06:43:14.120Z,23.30
2018-08-09T06:45:42.651Z,23.40
2018-08-09T06:48:11.159Z,23.50
2018-08-09T06:50:39.678Z,23.60
2018-08-09T06:53:08.186Z,23.70
2018-08-09T06:55:36.751Z,23.90
2018-08-09T06:58:05.756Z,24.00
2018-08-09T07:00:34.262Z,24.10
2018-08-09T07:03:02.799Z,24.20
2018-08-09T07:05:31.328Z,24.40
2018-08-09T07:07:59.795Z,24.50
2018-08-09T07:10:28.354Z,24.70
2018-08-09T07:12:56.855Z,24.80
2018-08-09T07:15:25.367Z,24.90
2018-08-09T07:17:53.842Z,25.10
2018-08-09T07:20:22.447Z,25.20
2018-08-09T07:22:50.857Z,25.40
2018-08-09T07:25:19.382Z,25.50
2018-08-09T07:27:47.891Z,25.70
2018-08-09T07:30:16.398Z,25.80
2018-08-09T07:32:44.911Z,26.00
2018-08-09T07:35:13.414Z,26.10
2018-08-09T07:37:42.068Z,26.30
2018-08-09T07:40:12.074Z,26.50
2018-08-09T07:42:41.629Z,26.60
2018-08-09T07:45:11.587Z,26.80
2018-08-09T07:47:40.150Z,26.90
2018-08-09T07:50:09.370Z,27.10
2018-08-09T07:52:37.992Z,27.20
2018-08-09T07:55:07.798Z,27.30
2018-08-09T07:57:36.349Z,27.50
2018-08-09T08:00:06.391Z,27.60
2018-08-09T08:02:34.883Z,27.80
2018-08-09T08:05:03.455Z,27.90
2018-08-09T08:07:31.987Z,28.00
2018-08-09T08:10:00.528Z,28.10
2018-08-09T08:12:29.113Z,28.20
2018-08-09T08:14:57.659Z,28.40
2018-08-09T08:17:26.124Z,28.40
2018-08-09T08:19:54.603Z,28.50
2018-08-09T08:22:23.105Z,28.70
2018-08-09T08:24:51.664Z,28.80
2018-08-09T08:27:20.192Z,28.90
2018-08-09T08:29:48.760Z,29.00
2018-08-09T08:32:17.242Z,29.20
2018-08-09T08:34:45.742Z,29.40
2018-08-09T08:37:14.207Z,29.60
2018-08-09T08:42:16.742Z,30.00
2018-08-09T08:44:45.298Z,30.10
2018-08-09T08:47:13.814Z,30.20
2018-08-09T08:49:42.322Z,30.30
2018-08-09T08:52:10.810Z,30.50
2018-08-09T08:54:39.358Z,30.70
2018-08-09T08:57:07.870Z,30.80
2018-08-09T08:59:36.410Z,31.00
2018-08-09T09:02:05.982Z,31.10
2018-08-09T09:04:34.546Z,31.30
2018-08-09T09:07:03.059Z,31.40
2018-08-09T09:09:31.635Z,31.60
2018-08-09T09:12:00.153Z,31.80
2018-08-09T09:14:28.780Z,32.10
2018-08-09T09:16:57.322Z,32.20
2018-08-09T09:19:25.947Z,32.30
2018-08-09T09:21:54.466Z,32.40
2018-08-09T09:24:22.942Z,32.50
2018-08-09T09:26:51.513Z,32.50
2018-08-09T09:29:20.073Z,32.50
2018-08-09T09:31:48.577Z,32.80
2018-08-09T09:34:17.091Z,32.90
2018-08-09T09:36:45.613Z,33.00
2018-08-09T09:39:14.136Z,33.00
2018-08-09T09:41:42.638Z,33.10
2018-08-09T09:44:11.224Z,33.30
2018-08-09T09:46:39.777Z,33.50
2018-08-09T09:49:08.289Z,33.70
2018-08-09T09:51:36.816Z,33.70
2018-08-09T09:54:05.355Z,33.70
2018-08-09T09:56:33.890Z,33.90
2018-08-09T09:59:02.444Z,34.00
2018-08-09T10:01:34.754Z,34.10
2018-08-09T10:04:04.365Z,34.20
2018-08-09T10:06:33.297Z,34.30
2018-08-09T10:09:01.838Z,34.50
2018-08-09T10:11:30.872Z,34.60
2018-08-09T10:13:59.351Z,34.70
2018-08-09T10:16:27.888Z,34.90
2018-08-09T10:18:56.421Z,35.00
2018-08-09T10:21:24.915Z,35.10
2018-08-09T10:23:53.432Z,35.10
2018-08-09T10:26:21.933Z,35.20
2018-08-09T10:28:50.544Z,35.30
2018-08-09T10:31:19.052Z,35.40
2018-08-09T10:33:47.580Z,35.30
2018-08-09T10:36:16.134Z,35.50
2018-08-09T10:38:44.697Z,35.70
2018-08-09T10:41:13.199Z,35.80
2018-08-09T10:43:42.547Z,36.00
2018-08-09T10:46:11.094Z,36.10
2018-08-09T10:48:39.627Z,36.20
2018-08-09T10:51:08.105Z,36.10
2018-08-09T10:53:36.644Z,36.10
2018-08-09T10:56:05.135Z,36.10
2018-08-09T10:58:33.646Z,36.20
2018-08-09T11:01:02.102Z,36.30
2018-08-09T11:03:30.731Z,36.30
2018-08-09T11:05:59.281Z,36.40
2018-08-09T11:08:27.730Z,36.50
2018-08-09T11:10:56.263Z,36.70
2018-08-09T11:13:24.731Z,36.70
2018-08-09T11:15:53.216Z,36.70
2018-08-09T11:18:21.711Z,36.70
2018-08-09T11:20:50.235Z,36.80
2018-08-09T11:23:18.682Z,36.90
2018-08-09T11:25:47.193Z,37.00
2018-08-09T11:28:15.679Z,37.20
2018-08-09T11:30:44.214Z,37.40
2018-08-09T11:33:12.697Z,37.50
2018-08-09T11:35:41.238Z,37.70
2018-08-09T11:38:09.727Z,37.60
2018-08-09T11:40:38.582Z,37.60
2018-08-09T11:43:07.110Z,37.80
2018-08-09T11:45:35.602Z,37.80
2018-08-09T11:48:04.058Z,37.70
2018-08-09T11:50:32.638Z,37.80
2018-08-09T11:53:01.084Z,37.80
2018-08-09T11:55:29.544Z,37.80
2018-08-09T11:57:58.042Z,38.00
2018-08-09T12:00:26.523Z,38.00
2018-08-09T12:02:55.051Z,38.10
2018-08-09T12:05:23.515Z,38.20
2018-08-09T12:07:52.081Z,38.30
2018-08-09T12:10:20.594Z,38.30
2018-08-09T12:12:49.174Z,38.40
2018-08-09T12:15:17.735Z,38.30
2018-08-09T12:17:46.275Z,38.10
2018-08-09T12:20:14.810Z,38.00
2018-08-09T12:22:43.319Z,38.00
2018-08-09T12:25:11.938Z,38.10
2018-08-09T12:27:40.494Z,38.10
2018-08-09T12:30:11.990Z,38.20
2018-08-09T12:32:40.503Z,38.10
2018-08-09T12:35:10.468Z,38.10
2018-08-09T12:37:39.345Z,38.10
2018-08-09T12:40:08.703Z,38.10
2018-08-09T12:42:37.591Z,38.10
2018-08-09T12:45:08.068Z,38.00
2018-08-09T12:47:37.454Z,38.10
2018-08-09T12:50:08.460Z,38.00
2018-08-09T12:52:36.967Z,38.10
2018-08-09T12:55:06.126Z,38.20
2018-08-09T12:57:34.638Z,38.20
2018-08-09T13:00:03.385Z,38.20
2018-08-09T13:02:31.800Z,38.20
2018-08-09T13:05:00.274Z,38.30
2018-08-09T13:07:28.776Z,38.30
2018-08-09T13:09:57.290Z,38.40
2018-08-09T13:12:25.794Z,38.30
2018-08-09T13:14:54.315Z,38.30
2018-08-09T13:17:22.923Z,38.10
2018-08-09T13:19:51.391Z,38.00
2018-08-09T13:22:19.929Z,38.00
2018-08-09T13:24:48.441Z,37.60
2018-08-09T13:27:16.991Z,37.60
2018-08-09T13:29:45.519Z,37.50
2018-08-09T13:32:14.056Z,37.50
2018-08-09T13:34:42.565Z,37.60
2018-08-09T13:37:11.261Z,37.50
2018-08-09T13:39:39.806Z,37.50
2018-08-09T13:42:08.499Z,37.50
2018-08-09T13:44:37.082Z,37.50
2018-08-09T13:47:05.730Z,37.50
2018-08-09T13:49:34.439Z,37.50
2018-08-09T13:52:03.029Z,37.30
2018-08-09T13:54:31.618Z,37.10
2018-08-09T13:57:00.234Z,37.00
2018-08-09T13:59:28.811Z,36.90
2018-08-09T14:01:57.309Z,36.80
2018-08-09T14:04:25.844Z,36.70
2018-08-09T14:06:54.418Z,36.70
2018-08-09T14:09:23.222Z,36.70
2018-08-09T14:11:51.755Z,36.80
2018-08-09T14:14:20.281Z,36.70
2018-08-09T14:16:48.863Z,36.60
2018-08-09T14:19:17.447Z,36.60
2018-08-09T14:21:45.938Z,36.50
2018-08-09T14:24:14.552Z,36.50
2018-08-09T14:26:43.058Z,36.50
2018-08-09T14:29:11.751Z,36.30
2018-08-09T14:31:40.291Z,36.30
2018-08-09T14:34:08.908Z,36.20
2018-08-09T14:36:37.565Z,36.00
2018-08-09T14:39:10.683Z,36.00
2018-08-09T14:41:39.287Z,36.00
2018-08-09T14:44:08.364Z,36.00
2018-08-09T14:46:36.937Z,36.00
2018-08-09T14:49:05.619Z,35.90
2018-08-09T14:51:34.252Z,36.00
2018-08-09T14:54:02.811Z,35.90
2018-08-09T14:56:31.393Z,35.90
2018-08-09T14:58:59.993Z,35.90
2018-08-09T15:01:28.591Z,35.90
2018-08-09T15:03:57.147Z,35.80
2018-08-09T15:06:25.700Z,35.70
2018-08-09T15:08:54.251Z,35.60
2018-08-09T15:11:22.916Z,35.60
2018-08-09T15:13:51.453Z,35.40
2018-08-09T15:16:19.965Z,35.20
2018-08-09T15:18:48.580Z,35.10
2018-08-09T15:21:17.069Z,35.10
2018-08-09T15:23:45.992Z,35.10
2018-08-09T15:26:14.499Z,35.00
2018-08-09T15:28:43.043Z,35.00
2018-08-09T15:31:11.591Z,34.80
2018-08-09T15:33:40.979Z,34.80
2018-08-09T15:36:09.607Z,34.70
2018-08-09T15:38:38.763Z,34.70
2018-08-09T15:41:07.335Z,34.60
2018-08-09T15:43:35.915Z,34.60
2018-08-09T15:46:04.379Z,34.40
2018-08-09T15:48:33.059Z,34.40
2018-08-09T15:51:01.516Z,34.30
2018-08-09T15:53:30.043Z,34.30
2018-08-09T15:55:58.595Z,34.10
2018-08-09T15:58:27.194Z,34.10
2018-08-09T16:00:55.751Z,34.00
2018-08-09T16:03:24.338Z,34.00
2018-08-09T16:05:52.891Z,33.90
2018-08-09T16:08:21.423Z,33.90
2018-08-09T16:10:49.991Z,33.80
2018-08-09T16:13:18.491Z,33.70
2018-08-09T16:15:47.043Z,33.60
2018-08-09T16:18:15.590Z,33.60
2018-08-09T16:20:44.151Z,33.60
2018-08-09T16:23:12.715Z,33.50
2018-08-09T16:25:41.252Z,33.40
2018-08-09T16:28:09.788Z,33.40
2018-08-09T16:30:38.374Z,33.40
2018-08-09T16:33:07.014Z,33.30
2018-08-09T16:35:35.636Z,33.30
2018-08-09T16:38:04.228Z,33.30
2018-08-09T16:40:32.758Z,33.20
2018-08-09T16:43:01.283Z,33.20
2018-08-09T16:45:29.850Z,33.10
2018-08-09T16:47:58.408Z,33.10
2018-08-09T16:50:27.046Z,33.00
2018-08-09T16:52:55.659Z,32.90
2018-08-09T16:55:24.864Z,32.80
2018-08-09T16:57:53.406Z,32.80
2018-08-09T17:00:23.222Z,32.70
2018-08-09T17:02:52.858Z,32.70
2018-08-09T17:05:26.709Z,32.60
2018-08-09T17:07:55.380Z,32.50
2018-08-09T17:10:24.814Z,32.50
2018-08-09T17:12:53.368Z,32.40
2018-08-09T17:15:24.734Z,32.40
2018-08-09T17:17:53.730Z,32.30
2018-08-09T17:20:26.677Z,32.20
2018-08-09T17:22:55.499Z,32.20
2018-08-09T17:25:24.069Z,32.20
2018-08-09T17:27:52.702Z,32.10
2018-08-09T17:30:23.167Z,32.10
2018-08-09T17:32:51.714Z,32.00
2018-08-09T17:35:20.558Z,31.90
2018-08-09T17:37:49.294Z,31.90
2018-08-09T17:40:23.876Z,31.80
2018-08-09T17:42:53.458Z,31.80
2018-08-09T17:45:23.813Z,31.70
2018-08-09T17:47:52.359Z,31.60
2018-08-09T17:50:20.925Z,31.60
2018-08-09T17:52:49.495Z,31.50
2018-08-09T17:55:18.092Z,31.40
2018-08-09T17:57:47.103Z,31.40
2018-08-09T18:00:22.139Z,31.40
2018-08-09T18:02:50.833Z,31.30
2018-08-09T18:05:19.465Z,31.20
2018-08-09T18:07:48.016Z,31.20
2018-08-09T18:10:19.031Z,31.10
2018-08-09T18:12:48.236Z,31.00
2018-08-09T18:15:17.041Z,31.00
2018-08-09T18:17:45.622Z,30.90
2018-08-09T18:20:15.769Z,30.80
2018-08-09T18:22:44.914Z,30.80
2018-08-09T18:25:14.286Z,30.70
2018-08-09T18:27:42.837Z,30.60
2018-08-09T18:30:15.540Z,30.50
2018-08-09T18:32:44.205Z,30.50
2018-08-09T18:35:14.160Z,30.50
2018-08-09T18:37:42.786Z,30.40
2018-08-09T18:40:15.020Z,30.40
2018-08-09T18:42:43.514Z,30.30
2018-08-09T18:45:12.300Z,30.30
2018-08-09T18:47:41.042Z,30.20
2018-08-09T18:50:21.829Z,30.10
2018-08-09T18:52:50.343Z,30.10
2018-08-09T18:55:19.679Z,30.00
2018-08-09T18:57:48.609Z,30.00
2018-08-09T19:00:19.345Z,29.90
2018-08-09T19:02:48.459Z,29.90
2018-08-09T19:05:17.035Z,29.90
2018-08-09T19:07:45.997Z,29.80
2018-08-09T19:10:17.095Z,29.80
2018-08-09T19:12:45.679Z,29.70
2018-08-09T19:15:14.260Z,29.60
2018-08-09T19:17:43.194Z,29.60
2018-08-09T19:20:15.190Z,29.50
2018-08-09T19:22:44.355Z,29.50
2018-08-09T19:25:13.099Z,29.40
2018-08-09T19:27:41.959Z,29.40
2018-08-09T19:30:11.046Z,29.40
2018-08-09T19:32:40.020Z,29.30
2018-08-09T19:35:10.875Z,29.20
2018-08-09T19:37:39.956Z,29.20
2018-08-09T19:40:09.743Z,29.10
2018-08-09T19:42:39.327Z,29.10
2018-08-09T19:45:10.102Z,29.00
2018-08-09T19:47:39.263Z,29.00
2018-08-09T19:50:11.815Z,29.00
2018-08-09T19:52:40.459Z,28.90
2018-08-09T19:55:10.999Z,28.80
2018-08-09T19:57:40.588Z,28.80
2018-08-09T20:00:12.577Z,28.80
2018-08-09T20:02:41.405Z,28.70
2018-08-09T20:05:10.793Z,28.70
2018-08-09T20:07:39.841Z,28.60
2018-08-09T20:10:10.027Z,28.60
2018-08-09T20:12:38.698Z,28.60
2018-08-09T20:15:10.020Z,28.60
2018-08-09T20:17:38.647Z,28.50
2018-08-09T20:20:08.003Z,28.50
2018-08-09T20:22:36.535Z,28.50
2018-08-09T20:25:06.091Z,28.40
2018-08-09T20:27:34.631Z,28.40
2018-08-09T20:30:09.303Z,28.30
2018-08-09T20:32:38.173Z,28.30
2018-08-09T20:35:09.059Z,28.20
2018-08-09T20:37:37.901Z,28.20
2018-08-09T20:40:07.575Z,28.10
2018-08-09T20:42:36.278Z,28.10
2018-08-09T20:45:07.211Z,28.00
2018-08-09T20:47:36.217Z,28.00
2018-08-09T20:50:06.711Z,28.00
2018-08-09T20:52:35.227Z,28.00
2018-08-09T20:55:03.779Z,27.90
2018-08-09T20:57:32.292Z,27.90
2018-08-09T21:00:00.902Z,27.80
2018-08-09T21:02:29.460Z,27.80
2018-08-09T21:04:58.155Z,27.80
2018-08-09T21:07:26.691Z,27.70
2018-08-09T21:09:55.199Z,27.70
2018-08-09T21:12:23.756Z,27.70
2018-08-09T21:14:52.319Z,27.60
2018-08-09T21:17:21.278Z,27.60
2018-08-09T21:19:49.859Z,27.50
2018-08-09T21:22:18.415Z,27.40
2018-08-09T21:24:46.913Z,27.50
2018-08-09T21:27:15.411Z,27.50
2018-08-09T21:29:43.859Z,27.50
2018-08-09T21:32:12.455Z,27.40
2018-08-09T21:34:40.914Z,27.40
2018-08-09T21:37:09.460Z,27.40
2018-08-09T21:39:38.016Z,27.40
2018-08-09T21:42:06.514Z,27.40
2018-08-09T21:44:34.976Z,27.40
2018-08-09T21:47:03.475Z,27.30
2018-08-09T21:49:32.001Z,27.20
2018-08-09T21:52:00.487Z,27.20
2018-08-09T21:54:29.060Z,27.10
2018-08-09T21:56:57.572Z,27.10
2018-08-09T21:59:26.173Z,27.10
2018-08-09T22:01:54.685Z,27.00
2018-08-09T22:04:23.231Z,26.90
2018-08-09T22:06:57.095Z,26.90
2018-08-09T22:09:30.971Z,26.90
2018-08-09T22:12:04.854Z,26.80
2018-08-09T22:14:38.620Z,26.80
2018-08-09T22:17:12.511Z,26.80
2018-08-09T22:19:46.363Z,26.70
2018-08-09T22:22:14.955Z,26.70
2018-08-09T22:24:43.503Z,26.70
2018-08-09T22:27:11.990Z,26.60
2018-08-09T22:29:40.549Z,26.50
2018-08-09T22:32:09.147Z,26.50
2018-08-09T22:34:37.735Z,26.50
2018-08-09T22:37:06.229Z,26.50
2018-08-09T22:39:34.736Z,26.50
2018-08-09T22:42:03.431Z,26.50
2018-08-09T22:44:31.951Z,26.50
2018-08-09T22:47:00.482Z,26.50
2018-08-09T22:49:28.979Z,26.40
2018-08-09T22:51:57.495Z,26.40
2018-08-09T22:54:25.999Z,26.40
2018-08-09T22:56:54.507Z,26.30
2018-08-09T22:59:23.027Z,26.30
2018-08-09T23:01:51.589Z,26.30
2018-08-09T23:04:20.059Z,26.20
2018-08-09T23:06:48.576Z,26.20
2018-08-09T23:09:17.090Z,26.20
2018-08-09T23:11:45.644Z,26.30
2018-08-09T23:14:14.170Z,26.30
2018-08-09T23:16:42.715Z,26.40
2018-08-09T23:19:11.252Z,26.40
2018-08-09T23:21:39.765Z,26.40
2018-08-09T23:24:08.337Z,26.30
2018-08-09T23:26:36.843Z,26.30
2018-08-09T23:29:05.434Z,26.30
2018-08-09T23:31:33.991Z,26.20
2018-08-09T23:34:03.091Z,26.20
2018-08-09T23:36:31.574Z,26.20
2018-08-09T23:39:00.126Z,26.20
2018-08-09T23:41:28.616Z,26.10
2018-08-09T23:43:57.181Z,26.10
2018-08-09T23:46:25.639Z,26.10
2018-08-09T23:48:54.149Z,26.10
2018-08-09T23:51:22.618Z,26.10
2018-08-09T23:53:51.131Z,26.10
2018-08-09T23:56:19.595Z,26.10
2018-08-09T23:58:48.151Z,26.10
